sensor_id;sensor_type;location;lat;lon;timestamp;temperature;humidity
52943;DHT22;38809;53.300;6.614;2023-03-23T00:02:24;10.30;99.90
52943;DHT22;38809;53.300;6.614;2023-03-23T00:04:51;10.30;99.90
52943;DHT22;38809;53.300;6.614;2023-03-23T00:07:19;10.30;99.90
52943;DHT22;38809;53.300;6.614;2023-03-23T00:09:50;10.10;99.90
52943;DHT22;38809;53.300;6.614;2023-03-23T00:12:25;10.10;99.90
52943;DHT22;38809;53.300;6.614;2023-03-23T00:14:55;10.10;99.90
52943;DHT22;38809;53.300;6.614;2023-03-23T00:17:21;10.20;99.90
52943;DHT22;38809;53.300;6.614;2023-03-23T00:19:49;10.20;99.90
52943;DHT22;38809;53.300;6.614;2023-03-23T00:22:16;10.20;99.90
52943;DHT22;38809;53.300;6.614;2023-03-23T00:24:43;10.00;99.90
52943;DHT22;38809;53.300;6.614;2023-03-23T00:27:09;10.10;99.90
52943;DHT22;38809;53.300;6.614;2023-03-23T00:29:38;10.20;99.90
52943;DHT22;38809;53.300;6.614;2023-03-23T00:32:06;10.00;99.90
52943;DHT22;38809;53.300;6.614;2023-03-23T00:34:32;10.00;99.90
52943;DHT22;38809;53.300;6.614;2023-03-23T00:36:58;10.30;99.90
52943;DHT22;38809;53.300;6.614;2023-03-23T00:39:25;10.20;99.90
52943;DHT22;38809;53.300;6.614;2023-03-23T00:41:53;10.20;99.90
52943;DHT22;38809;53.300;6.614;2023-03-23T00:44:20;10.20;99.90
52943;DHT22;38809;53.300;6.614;2023-03-23T00:46:49;10.20;99.90
52943;DHT22;38809;53.300;6.614;2023-03-23T00:49:20;10.20;99.90
52943;DHT22;38809;53.300;6.614;2023-03-23T00:51:54;10.20;99.90
52943;DHT22;38809;53.300;6.614;2023-03-23T00:54:22;10.30;99.90
52943;DHT22;38809;53.300;6.614;2023-03-23T00:56:48;10.10;99.90
52943;DHT22;38809;53.300;6.614;2023-03-23T00:59:14;10.10;99.90
52943;DHT22;38809;53.300;6.614;2023-03-23T01:01:40;10.30;99.90
52943;DHT22;38809;53.300;6.614;2023-03-23T01:04:06;10.20;99.90
52943;DHT22;38809;53.300;6.614;2023-03-23T01:06:34;10.20;99.90
52943;DHT22;38809;53.300;6.614;2023-03-23T01:09:08;10.40;99.90
52943;DHT22;38809;53.300;6.614;2023-03-23T01:11:34;10.50;99.90
52943;DHT22;38809;53.300;6.614;2023-03-23T01:14:00;10.50;99.90
52943;DHT22;38809;53.300;6.614;2023-03-23T01:16:27;10.60;99.90
52943;DHT22;38809;53.300;6.614;2023-03-23T01:18:52;10.40;99.90
52943;DHT22;38809;53.300;6.614;2023-03-23T01:21:19;10.40;99.90
52943;DHT22;38809;53.300;6.614;2023-03-23T01:23:46;10.40;99.90
52943;DHT22;38809;53.300;6.614;2023-03-23T01:26:14;10.60;99.90
52943;DHT22;38809;53.300;6.614;2023-03-23T01:28:41;10.70;99.90
52943;DHT22;38809;53.300;6.614;2023-03-23T01:31:11;10.40;99.90
52943;DHT22;38809;53.300;6.614;2023-03-23T01:33:38;10.40;99.90
52943;DHT22;38809;53.300;6.614;2023-03-23T01:36:07;10.40;99.90
52943;DHT22;38809;53.300;6.614;2023-03-23T01:38:34;10.30;99.90
52943;DHT22;38809;53.300;6.614;2023-03-23T01:41:00;10.30;99.90
52943;DHT22;38809;53.300;6.614;2023-03-23T01:43:26;10.30;99.90
52943;DHT22;38809;53.300;6.614;2023-03-23T01:45:52;10.40;99.90
52943;DHT22;38809;53.300;6.614;2023-03-23T01:48:30;10.20;99.90
52943;DHT22;38809;53.300;6.614;2023-03-23T01:51:10;10.30;99.90
52943;DHT22;38809;53.300;6.614;2023-03-23T01:53:44;10.30;99.90
52943;DHT22;38809;53.300;6.614;2023-03-23T01:56:12;10.40;99.90
52943;DHT22;38809;53.300;6.614;2023-03-23T01:58:40;10.30;99.90
52943;DHT22;38809;53.300;6.614;2023-03-23T02:01:10;10.40;99.90
52943;DHT22;38809;53.300;6.614;2023-03-23T02:03:39;10.50;99.90
52943;DHT22;38809;53.300;6.614;2023-03-23T02:06:07;10.40;99.90
52943;DHT22;38809;53.300;6.614;2023-03-23T02:08:33;10.50;99.90
52943;DHT22;38809;53.300;6.614;2023-03-23T02:10:59;10.40;99.90
52943;DHT22;38809;53.300;6.614;2023-03-23T02:13:25;10.50;99.90
52943;DHT22;38809;53.300;6.614;2023-03-23T02:21:41;10.50;99.90
52943;DHT22;38809;53.300;6.614;2023-03-23T02:26:58;10.70;99.90
52943;DHT22;38809;53.300;6.614;2023-03-23T02:35:08;10.80;99.90
52943;DHT22;38809;53.300;6.614;2023-03-23T02:38:01;10.60;99.90
52943;DHT22;38809;53.300;6.614;2023-03-23T02:40:33;10.70;99.90
52943;DHT22;38809;53.300;6.614;2023-03-23T02:43:03;10.80;99.90
52943;DHT22;38809;53.300;6.614;2023-03-23T02:45:33;10.70;99.90
52943;DHT22;38809;53.300;6.614;2023-03-23T02:48:01;10.80;99.90
52943;DHT22;38809;53.300;6.614;2023-03-23T02:50:28;10.80;99.90
52943;DHT22;38809;53.300;6.614;2023-03-23T02:52:55;10.80;99.90
52943;DHT22;38809;53.300;6.614;2023-03-23T02:55:22;10.70;99.90
52943;DHT22;38809;53.300;6.614;2023-03-23T02:57:52;10.70;99.90
52943;DHT22;38809;53.300;6.614;2023-03-23T03:00:19;10.70;99.90
52943;DHT22;38809;53.300;6.614;2023-03-23T03:02:49;10.70;99.90
52943;DHT22;38809;53.300;6.614;2023-03-23T03:05:52;10.80;99.90
52943;DHT22;38809;53.300;6.614;2023-03-23T03:11:15;10.90;99.90
52943;DHT22;38809;53.300;6.614;2023-03-23T03:13:56;11.00;99.90
52943;DHT22;38809;53.300;6.614;2023-03-23T03:16:35;10.90;99.90
52943;DHT22;38809;53.300;6.614;2023-03-23T03:19:12;10.90;99.90
52943;DHT22;38809;53.300;6.614;2023-03-23T03:21:42;10.80;99.90
52943;DHT22;38809;53.300;6.614;2023-03-23T03:24:10;11.00;99.90
52943;DHT22;38809;53.300;6.614;2023-03-23T03:26:43;10.80;99.90
52943;DHT22;38809;53.300;6.614;2023-03-23T03:29:21;10.90;99.90
52943;DHT22;38809;53.300;6.614;2023-03-23T03:31:49;10.70;99.90
52943;DHT22;38809;53.300;6.614;2023-03-23T03:34:17;10.90;99.90
52943;DHT22;38809;53.300;6.614;2023-03-23T03:36:46;10.80;99.90
52943;DHT22;38809;53.300;6.614;2023-03-23T03:39:14;10.90;99.90
52943;DHT22;38809;53.300;6.614;2023-03-23T03:41:42;10.80;99.90
52943;DHT22;38809;53.300;6.614;2023-03-23T03:44:07;10.90;99.90
52943;DHT22;38809;53.300;6.614;2023-03-23T03:46:36;10.80;99.90
52943;DHT22;38809;53.300;6.614;2023-03-23T03:49:05;10.80;99.90
52943;DHT22;38809;53.300;6.614;2023-03-23T03:51:32;10.90;99.90
52943;DHT22;38809;53.300;6.614;2023-03-23T03:53:58;11.00;99.90
52943;DHT22;38809;53.300;6.614;2023-03-23T03:56:24;11.00;99.90
52943;DHT22;38809;53.300;6.614;2023-03-23T03:58:51;10.90;99.90
52943;DHT22;38809;53.300;6.614;2023-03-23T04:01:18;11.00;99.90
52943;DHT22;38809;53.300;6.614;2023-03-23T04:03:44;10.90;99.90
52943;DHT22;38809;53.300;6.614;2023-03-23T04:06:10;10.80;99.90
52943;DHT22;38809;53.300;6.614;2023-03-23T04:08:38;10.70;99.90
52943;DHT22;38809;53.300;6.614;2023-03-23T04:11:07;10.70;99.90
52943;DHT22;38809;53.300;6.614;2023-03-23T04:13:33;10.70;99.90
52943;DHT22;38809;53.300;6.614;2023-03-23T04:15:58;10.90;99.90
52943;DHT22;38809;53.300;6.614;2023-03-23T04:18:24;10.80;99.90
52943;DHT22;38809;53.300;6.614;2023-03-23T04:20:50;10.80;99.90
52943;DHT22;38809;53.300;6.614;2023-03-23T04:23:17;10.80;99.90
52943;DHT22;38809;53.300;6.614;2023-03-23T04:25:51;10.70;99.90
52943;DHT22;38809;53.300;6.614;2023-03-23T04:28:18;10.70;99.90
52943;DHT22;38809;53.300;6.614;2023-03-23T04:30:46;10.60;99.90
52943;DHT22;38809;53.300;6.614;2023-03-23T04:33:14;10.50;99.90
52943;DHT22;38809;53.300;6.614;2023-03-23T04:35:42;10.60;99.90
52943;DHT22;38809;53.300;6.614;2023-03-23T04:38:12;10.50;99.90
52943;DHT22;38809;53.300;6.614;2023-03-23T04:40:41;10.50;99.90
52943;DHT22;38809;53.300;6.614;2023-03-23T04:43:07;10.40;99.90
52943;DHT22;38809;53.300;6.614;2023-03-23T04:45:34;10.60;99.90
52943;DHT22;38809;53.300;6.614;2023-03-23T04:47:59;10.40;99.90
52943;DHT22;38809;53.300;6.614;2023-03-23T04:50:28;10.50;99.90
52943;DHT22;38809;53.300;6.614;2023-03-23T04:52:56;10.50;99.90
52943;DHT22;38809;53.300;6.614;2023-03-23T04:55:25;10.20;99.90
52943;DHT22;38809;53.300;6.614;2023-03-23T04:57:51;10.30;99.90
52943;DHT22;38809;53.300;6.614;2023-03-23T05:00:18;10.20;99.90
52943;DHT22;38809;53.300;6.614;2023-03-23T05:02:45;10.30;99.90
52943;DHT22;38809;53.300;6.614;2023-03-23T05:05:13;10.20;99.90
52943;DHT22;38809;53.300;6.614;2023-03-23T05:07:41;10.20;99.90
52943;DHT22;38809;53.300;6.614;2023-03-23T05:10:09;10.30;99.90
52943;DHT22;38809;53.300;6.614;2023-03-23T05:12:36;10.40;99.90
52943;DHT22;38809;53.300;6.614;2023-03-23T05:15:03;10.30;99.90
52943;DHT22;38809;53.300;6.614;2023-03-23T05:17:29;10.20;99.90
52943;DHT22;38809;53.300;6.614;2023-03-23T05:19:55;10.30;99.90
52943;DHT22;38809;53.300;6.614;2023-03-23T05:22:22;10.20;99.90
52943;DHT22;38809;53.300;6.614;2023-03-23T05:24:49;10.20;99.90
52943;DHT22;38809;53.300;6.614;2023-03-23T05:27:17;10.40;99.90
52943;DHT22;38809;53.300;6.614;2023-03-23T05:29:45;10.30;99.90
52943;DHT22;38809;53.300;6.614;2023-03-23T05:32:14;10.40;99.90
52943;DHT22;38809;53.300;6.614;2023-03-23T05:34:40;10.40;99.90
52943;DHT22;38809;53.300;6.614;2023-03-23T05:37:08;10.40;99.90
52943;DHT22;38809;53.300;6.614;2023-03-23T05:39:35;10.30;99.90
52943;DHT22;38809;53.300;6.614;2023-03-23T05:42:02;10.30;99.90
52943;DHT22;38809;53.300;6.614;2023-03-23T05:44:29;10.30;99.90
52943;DHT22;38809;53.300;6.614;2023-03-23T05:46:55;10.30;99.90
52943;DHT22;38809;53.300;6.614;2023-03-23T05:49:21;10.40;99.90
52943;DHT22;38809;53.300;6.614;2023-03-23T05:51:47;10.50;99.90
52943;DHT22;38809;53.300;6.614;2023-03-23T05:54:15;10.50;99.90
52943;DHT22;38809;53.300;6.614;2023-03-23T05:56:41;10.30;99.90
52943;DHT22;38809;53.300;6.614;2023-03-23T05:59:08;10.40;99.90
52943;DHT22;38809;53.300;6.614;2023-03-23T06:01:36;10.30;99.90
52943;DHT22;38809;53.300;6.614;2023-03-23T06:04:03;10.30;99.90
52943;DHT22;38809;53.300;6.614;2023-03-23T06:06:30;10.40;99.90
52943;DHT22;38809;53.300;6.614;2023-03-23T06:08:58;10.40;99.90
52943;DHT22;38809;53.300;6.614;2023-03-23T06:11:25;10.40;99.90
52943;DHT22;38809;53.300;6.614;2023-03-23T06:13:52;10.50;99.90
52943;DHT22;38809;53.300;6.614;2023-03-23T06:16:18;10.50;99.90
52943;DHT22;38809;53.300;6.614;2023-03-23T06:18:44;10.50;99.90
52943;DHT22;38809;53.300;6.614;2023-03-23T06:21:10;10.50;99.90
52943;DHT22;38809;53.300;6.614;2023-03-23T06:23:37;10.50;99.90
52943;DHT22;38809;53.300;6.614;2023-03-23T06:26:07;10.50;99.90
52943;DHT22;38809;53.300;6.614;2023-03-23T06:28:34;10.50;99.90
52943;DHT22;38809;53.300;6.614;2023-03-23T06:31:03;10.40;99.90
52943;DHT22;38809;53.300;6.614;2023-03-23T06:33:33;10.50;99.90
52943;DHT22;38809;53.300;6.614;2023-03-23T06:35:59;10.40;99.90
52943;DHT22;38809;53.300;6.614;2023-03-23T06:38:25;10.40;99.90
52943;DHT22;38809;53.300;6.614;2023-03-23T06:40:54;10.40;99.90
52943;DHT22;38809;53.300;6.614;2023-03-23T06:43:22;10.20;99.90
52943;DHT22;38809;53.300;6.614;2023-03-23T06:45:48;10.20;99.90
52943;DHT22;38809;53.300;6.614;2023-03-23T06:48:14;10.20;99.90
52943;DHT22;38809;53.300;6.614;2023-03-23T06:50:44;10.30;99.90
52943;DHT22;38809;53.300;6.614;2023-03-23T06:53:10;10.30;99.90
52943;DHT22;38809;53.300;6.614;2023-03-23T06:55:37;10.30;99.90
52943;DHT22;38809;53.300;6.614;2023-03-23T06:58:07;10.20;99.90
52943;DHT22;38809;53.300;6.614;2023-03-23T07:00:34;10.10;99.90
52943;DHT22;38809;53.300;6.614;2023-03-23T07:02:59;10.10;99.90
52943;DHT22;38809;53.300;6.614;2023-03-23T07:05:25;10.10;99.90
52943;DHT22;38809;53.300;6.614;2023-03-23T07:07:51;10.10;99.90
52943;DHT22;38809;53.300;6.614;2023-03-23T07:10:17;10.00;99.90
52943;DHT22;38809;53.300;6.614;2023-03-23T07:12:43;10.00;99.90
52943;DHT22;38809;53.300;6.614;2023-03-23T07:15:09;10.00;99.90
52943;DHT22;38809;53.300;6.614;2023-03-23T07:17:39;10.00;99.90
52943;DHT22;38809;53.300;6.614;2023-03-23T07:20:06;10.00;99.90
52943;DHT22;38809;53.300;6.614;2023-03-23T07:22:33;10.10;99.90
52943;DHT22;38809;53.300;6.614;2023-03-23T07:24:59;10.10;99.90
52943;DHT22;38809;53.300;6.614;2023-03-23T07:27:25;10.10;99.90
52943;DHT22;38809;53.300;6.614;2023-03-23T07:29:51;10.10;99.90
52943;DHT22;38809;53.300;6.614;2023-03-23T07:32:17;10.20;99.90
52943;DHT22;38809;53.300;6.614;2023-03-23T07:34:43;10.30;99.90
52943;DHT22;38809;53.300;6.614;2023-03-23T07:37:09;10.20;99.90
52943;DHT22;38809;53.300;6.614;2023-03-23T07:39:35;10.40;99.90
52943;DHT22;38809;53.300;6.614;2023-03-23T07:42:00;10.50;99.90
52943;DHT22;38809;53.300;6.614;2023-03-23T07:44:26;10.50;99.90
52943;DHT22;38809;53.300;6.614;2023-03-23T07:46:52;10.70;99.90
52943;DHT22;38809;53.300;6.614;2023-03-23T07:49:18;10.70;99.90
52943;DHT22;38809;53.300;6.614;2023-03-23T07:51:45;10.70;99.90
52943;DHT22;38809;53.300;6.614;2023-03-23T07:54:11;10.80;99.90
52943;DHT22;38809;53.300;6.614;2023-03-23T07:56:37;10.80;99.90
52943;DHT22;38809;53.300;6.614;2023-03-23T07:59:06;10.80;99.90
52943;DHT22;38809;53.300;6.614;2023-03-23T08:01:32;10.80;99.90
52943;DHT22;38809;53.300;6.614;2023-03-23T08:03:58;10.90;99.90
52943;DHT22;38809;53.300;6.614;2023-03-23T08:06:25;10.90;99.90
52943;DHT22;38809;53.300;6.614;2023-03-23T08:08:51;11.00;99.90
52943;DHT22;38809;53.300;6.614;2023-03-23T08:11:17;11.00;99.90
52943;DHT22;38809;53.300;6.614;2023-03-23T08:13:44;11.00;99.90
52943;DHT22;38809;53.300;6.614;2023-03-23T08:16:10;11.30;99.90
52943;DHT22;38809;53.300;6.614;2023-03-23T08:18:37;11.20;99.90
52943;DHT22;38809;53.300;6.614;2023-03-23T08:21:05;11.10;99.90
52943;DHT22;38809;53.300;6.614;2023-03-23T08:23:32;11.10;99.90
52943;DHT22;38809;53.300;6.614;2023-03-23T08:25:59;11.20;99.90
52943;DHT22;38809;53.300;6.614;2023-03-23T08:28:25;11.30;99.90
52943;DHT22;38809;53.300;6.614;2023-03-23T08:30:50;11.30;99.90
52943;DHT22;38809;53.300;6.614;2023-03-23T08:33:16;11.40;99.90
52943;DHT22;38809;53.300;6.614;2023-03-23T08:35:42;11.40;99.90
52943;DHT22;38809;53.300;6.614;2023-03-23T08:38:10;11.30;99.90
52943;DHT22;38809;53.300;6.614;2023-03-23T08:40:37;11.40;99.90
52943;DHT22;38809;53.300;6.614;2023-03-23T08:43:04;11.30;99.90
52943;DHT22;38809;53.300;6.614;2023-03-23T08:45:30;11.40;99.90
52943;DHT22;38809;53.300;6.614;2023-03-23T08:47:56;11.50;99.90
52943;DHT22;38809;53.300;6.614;2023-03-23T08:50:27;11.60;99.90
52943;DHT22;38809;53.300;6.614;2023-03-23T08:52:53;11.50;99.90
52943;DHT22;38809;53.300;6.614;2023-03-23T08:55:21;11.50;99.90
52943;DHT22;38809;53.300;6.614;2023-03-23T08:57:47;11.60;99.90
52943;DHT22;38809;53.300;6.614;2023-03-23T09:00:18;11.90;99.90
52943;DHT22;38809;53.300;6.614;2023-03-23T09:02:49;12.10;99.90
52943;DHT22;38809;53.300;6.614;2023-03-23T09:05:16;12.00;99.90
52943;DHT22;38809;53.300;6.614;2023-03-23T09:07:46;11.90;99.90
52943;DHT22;38809;53.300;6.614;2023-03-23T09:10:12;12.10;99.90
52943;DHT22;38809;53.300;6.614;2023-03-23T09:12:39;12.30;99.90
52943;DHT22;38809;53.300;6.614;2023-03-23T09:15:06;12.30;99.90
52943;DHT22;38809;53.300;6.614;2023-03-23T09:17:55;12.40;99.90
52943;DHT22;38809;53.300;6.614;2023-03-23T09:20:24;12.20;99.90
52943;DHT22;38809;53.300;6.614;2023-03-23T09:22:52;12.00;99.90
52943;DHT22;38809;53.300;6.614;2023-03-23T09:25:20;12.10;99.90
52943;DHT22;38809;53.300;6.614;2023-03-23T09:27:51;12.00;99.90
52943;DHT22;38809;53.300;6.614;2023-03-23T09:30:24;12.20;99.90
52943;DHT22;38809;53.300;6.614;2023-03-23T09:32:50;12.10;99.90
52943;DHT22;38809;53.300;6.614;2023-03-23T09:35:16;12.50;99.90
52943;DHT22;38809;53.300;6.614;2023-03-23T09:37:43;12.20;99.90
52943;DHT22;38809;53.300;6.614;2023-03-23T09:40:16;12.20;99.90
52943;DHT22;38809;53.300;6.614;2023-03-23T09:43:13;12.40;99.90
52943;DHT22;38809;53.300;6.614;2023-03-23T09:48:55;12.70;99.90
52943;DHT22;38809;53.300;6.614;2023-03-23T09:51:42;13.10;99.90
52943;DHT22;38809;53.300;6.614;2023-03-23T09:54:27;13.40;99.90
52943;DHT22;38809;53.300;6.614;2023-03-23T09:56:55;13.60;99.90
52943;DHT22;38809;53.300;6.614;2023-03-23T10:01:55;13.90;99.90
52943;DHT22;38809;53.300;6.614;2023-03-23T10:07:24;13.60;99.90
52943;DHT22;38809;53.300;6.614;2023-03-23T10:09:54;13.40;99.90
52943;DHT22;38809;53.300;6.614;2023-03-23T10:12:57;13.50;99.90
52943;DHT22;38809;53.300;6.614;2023-03-23T10:15:31;13.00;99.90
52943;DHT22;38809;53.300;6.614;2023-03-23T10:20:56;13.20;99.90
52943;DHT22;38809;53.300;6.614;2023-03-23T10:28:45;13.40;99.90
52943;DHT22;38809;53.300;6.614;2023-03-23T10:31:17;13.10;99.90
52943;DHT22;38809;53.300;6.614;2023-03-23T10:33:53;13.00;99.90
52943;DHT22;38809;53.300;6.614;2023-03-23T10:36:30;13.20;99.90
52943;DHT22;38809;53.300;6.614;2023-03-23T10:39:09;13.00;99.90
52943;DHT22;38809;53.300;6.614;2023-03-23T10:41:36;13.20;99.90
52943;DHT22;38809;53.300;6.614;2023-03-23T10:44:15;13.50;99.90
52943;DHT22;38809;53.300;6.614;2023-03-23T10:47:05;13.50;99.90
52943;DHT22;38809;53.300;6.614;2023-03-23T10:49:42;13.90;99.90
52943;DHT22;38809;53.300;6.614;2023-03-23T10:55:17;14.00;99.90
52943;DHT22;38809;53.300;6.614;2023-03-23T10:57:45;13.90;99.90
52943;DHT22;38809;53.300;6.614;2023-03-23T11:00:23;13.90;99.90
52943;DHT22;38809;53.300;6.614;2023-03-23T11:02:59;13.70;99.90
52943;DHT22;38809;53.300;6.614;2023-03-23T11:05:38;13.80;99.90
52943;DHT22;38809;53.300;6.614;2023-03-23T11:08:21;14.20;99.90
52943;DHT22;38809;53.300;6.614;2023-03-23T11:10:53;14.20;99.90
52943;DHT22;38809;53.300;6.614;2023-03-23T11:13:22;14.10;99.90
52943;DHT22;38809;53.300;6.614;2023-03-23T11:15:49;14.40;99.90
52943;DHT22;38809;53.300;6.614;2023-03-23T11:20:54;14.20;99.90
52943;DHT22;38809;53.300;6.614;2023-03-23T11:23:37;13.80;99.90
52943;DHT22;38809;53.300;6.614;2023-03-23T11:26:13;13.60;99.90
52943;DHT22;38809;53.300;6.614;2023-03-23T11:31:45;13.80;99.90
52943;DHT22;38809;53.300;6.614;2023-03-23T11:34:40;13.90;99.90
52943;DHT22;38809;53.300;6.614;2023-03-23T11:37:06;14.10;99.90
52943;DHT22;38809;53.300;6.614;2023-03-23T11:39:45;14.60;99.90
52943;DHT22;38809;53.300;6.614;2023-03-23T11:42:25;14.10;99.90
52943;DHT22;38809;53.300;6.614;2023-03-23T11:44:54;14.30;99.90
52943;DHT22;38809;53.300;6.614;2023-03-23T11:47:36;14.30;99.90
52943;DHT22;38809;53.300;6.614;2023-03-23T11:50:16;14.20;99.90
52943;DHT22;38809;53.300;6.614;2023-03-23T11:52:47;14.20;99.90
52943;DHT22;38809;53.300;6.614;2023-03-23T11:55:26;14.60;99.90
52943;DHT22;38809;53.300;6.614;2023-03-23T11:57:55;14.70;99.90
52943;DHT22;38809;53.300;6.614;2023-03-23T12:00:23;14.60;99.90
52943;DHT22;38809;53.300;6.614;2023-03-23T12:03:01;14.50;99.90
52943;DHT22;38809;53.300;6.614;2023-03-23T12:05:42;14.40;99.90
52943;DHT22;38809;53.300;6.614;2023-03-23T12:12:03;13.70;99.90
52943;DHT22;38809;53.300;6.614;2023-03-23T12:27:30;13.50;99.90
52943;DHT22;38809;53.300;6.614;2023-03-23T12:43:27;13.80;99.90
52943;DHT22;38809;53.300;6.614;2023-03-23T12:48:37;13.80;99.90
52943;DHT22;38809;53.300;6.614;2023-03-23T12:51:28;13.80;99.90
52943;DHT22;38809;53.300;6.614;2023-03-23T13:04:39;13.70;99.90
52943;DHT22;38809;53.300;6.614;2023-03-23T13:07:12;13.70;99.90
52943;DHT22;38809;53.300;6.614;2023-03-23T13:09:53;13.70;99.90
52943;DHT22;38809;53.300;6.614;2023-03-23T13:12:21;13.60;99.90
52943;DHT22;38809;53.300;6.614;2023-03-23T13:17:31;13.60;99.90
52943;DHT22;38809;53.300;6.614;2023-03-23T13:26:17;13.70;99.90
52943;DHT22;38809;53.300;6.614;2023-03-23T13:31:29;13.80;99.90
52943;DHT22;38809;53.300;6.614;2023-03-23T13:34:04;13.90;99.90
52943;DHT22;38809;53.300;6.614;2023-03-23T13:39:39;13.90;99.90
52943;DHT22;38809;53.300;6.614;2023-03-23T13:49:50;13.40;99.90
52943;DHT22;38809;53.300;6.614;2023-03-23T13:52:23;13.40;99.90
52943;DHT22;38809;53.300;6.614;2023-03-23T13:54:50;13.40;99.90
52943;DHT22;38809;53.300;6.614;2023-03-23T14:00:10;13.30;99.90
52943;DHT22;38809;53.300;6.614;2023-03-23T14:02:41;13.30;99.90
52943;DHT22;38809;53.300;6.614;2023-03-23T14:08:01;13.30;99.90
52943;DHT22;38809;53.300;6.614;2023-03-23T14:10:48;13.40;99.90
52943;DHT22;38809;53.300;6.614;2023-03-23T14:13:25;13.60;99.90
52943;DHT22;38809;53.300;6.614;2023-03-23T14:15:57;13.90;99.90
52943;DHT22;38809;53.300;6.614;2023-03-23T14:18:27;13.90;99.90
52943;DHT22;38809;53.300;6.614;2023-03-23T14:20:53;13.80;99.90
52943;DHT22;38809;53.300;6.614;2023-03-23T14:23:19;13.60;99.90
52943;DHT22;38809;53.300;6.614;2023-03-23T14:25:54;13.80;99.90
52943;DHT22;38809;53.300;6.614;2023-03-23T14:28:21;13.70;99.90
52943;DHT22;38809;53.300;6.614;2023-03-23T14:30:52;14.00;99.90
52943;DHT22;38809;53.300;6.614;2023-03-23T14:33:19;13.80;99.90
52943;DHT22;38809;53.300;6.614;2023-03-23T14:35:46;14.10;99.90
52943;DHT22;38809;53.300;6.614;2023-03-23T14:38:20;14.10;99.90
52943;DHT22;38809;53.300;6.614;2023-03-23T14:40:47;14.00;99.90
52943;DHT22;38809;53.300;6.614;2023-03-23T14:43:16;14.20;99.90
52943;DHT22;38809;53.300;6.614;2023-03-23T14:45:42;14.20;99.90
52943;DHT22;38809;53.300;6.614;2023-03-23T14:48:13;14.10;99.90
52943;DHT22;38809;53.300;6.614;2023-03-23T14:50:47;14.20;99.90
52943;DHT22;38809;53.300;6.614;2023-03-23T14:53:22;14.30;99.90
52943;DHT22;38809;53.300;6.614;2023-03-23T14:55:51;14.40;99.90
52943;DHT22;38809;53.300;6.614;2023-03-23T14:58:19;14.40;99.90
52943;DHT22;38809;53.300;6.614;2023-03-23T15:03:18;14.30;99.90
52943;DHT22;38809;53.300;6.614;2023-03-23T15:05:47;14.30;99.90
52943;DHT22;38809;53.300;6.614;2023-03-23T15:11:08;14.20;99.90
52943;DHT22;38809;53.300;6.614;2023-03-23T15:13:36;14.20;99.90
52943;DHT22;38809;53.300;6.614;2023-03-23T15:16:11;14.10;99.90
52943;DHT22;38809;53.300;6.614;2023-03-23T15:18:40;14.10;99.90
52943;DHT22;38809;53.300;6.614;2023-03-23T15:21:23;14.20;99.90
52943;DHT22;38809;53.300;6.614;2023-03-23T15:23:49;14.10;99.90
52943;DHT22;38809;53.300;6.614;2023-03-23T15:26:42;14.10;99.90
52943;DHT22;38809;53.300;6.614;2023-03-23T15:29:17;14.20;99.90
52943;DHT22;38809;53.300;6.614;2023-03-23T15:31:50;14.10;99.90
52943;DHT22;38809;53.300;6.614;2023-03-23T15:34:21;14.10;99.90
52943;DHT22;38809;53.300;6.614;2023-03-23T15:37:01;14.10;99.90
52943;DHT22;38809;53.300;6.614;2023-03-23T15:39:28;14.00;99.90
52943;DHT22;38809;53.300;6.614;2023-03-23T15:41:54;14.00;99.90
52943;DHT22;38809;53.300;6.614;2023-03-23T15:44:23;14.00;99.90
52943;DHT22;38809;53.300;6.614;2023-03-23T15:46:51;13.90;99.90
52943;DHT22;38809;53.300;6.614;2023-03-23T15:49:17;13.90;99.90
52943;DHT22;38809;53.300;6.614;2023-03-23T15:51:43;13.90;99.90
52943;DHT22;38809;53.300;6.614;2023-03-23T15:54:13;13.80;99.90
52943;DHT22;38809;53.300;6.614;2023-03-23T15:56:39;13.80;99.90
52943;DHT22;38809;53.300;6.614;2023-03-23T15:59:07;13.80;99.90
52943;DHT22;38809;53.300;6.614;2023-03-23T16:01:32;13.80;99.90
52943;DHT22;38809;53.300;6.614;2023-03-23T16:06:29;13.60;99.90
52943;DHT22;38809;53.300;6.614;2023-03-23T16:08:55;13.50;99.90
52943;DHT22;38809;53.300;6.614;2023-03-23T16:11:22;13.50;99.90
52943;DHT22;38809;53.300;6.614;2023-03-23T16:13:48;13.50;99.90
52943;DHT22;38809;53.300;6.614;2023-03-23T16:16:17;13.40;99.90
52943;DHT22;38809;53.300;6.614;2023-03-23T16:18:43;13.50;99.90
52943;DHT22;38809;53.300;6.614;2023-03-23T16:21:09;13.40;99.90
52943;DHT22;38809;53.300;6.614;2023-03-23T16:23:35;13.30;99.90
52943;DHT22;38809;53.300;6.614;2023-03-23T16:26:00;14.20;99.90
52943;DHT22;38809;53.300;6.614;2023-03-23T16:28:26;13.20;99.90
52943;DHT22;38809;53.300;6.614;2023-03-23T16:30:52;13.20;99.90
52943;DHT22;38809;53.300;6.614;2023-03-23T16:33:18;13.20;99.90
52943;DHT22;38809;53.300;6.614;2023-03-23T16:35:44;13.10;99.90
52943;DHT22;38809;53.300;6.614;2023-03-23T16:38:12;13.20;99.90
52943;DHT22;38809;53.300;6.614;2023-03-23T16:40:39;13.10;99.90
52943;DHT22;38809;53.300;6.614;2023-03-23T16:43:05;13.10;99.90
52943;DHT22;38809;53.300;6.614;2023-03-23T16:45:31;13.00;99.90
52943;DHT22;38809;53.300;6.614;2023-03-23T16:47:57;13.00;99.90
52943;DHT22;38809;53.300;6.614;2023-03-23T16:50:27;13.00;99.90
52943;DHT22;38809;53.300;6.614;2023-03-23T16:52:53;13.00;99.90
52943;DHT22;38809;53.300;6.614;2023-03-23T16:55:19;12.90;99.90
52943;DHT22;38809;53.300;6.614;2023-03-23T16:57:45;12.90;99.90
52943;DHT22;38809;53.300;6.614;2023-03-23T17:00:13;12.90;99.90
52943;DHT22;38809;53.300;6.614;2023-03-23T17:02:41;12.80;99.90
52943;DHT22;38809;53.300;6.614;2023-03-23T17:05:10;12.80;99.90
52943;DHT22;38809;53.300;6.614;2023-03-23T17:07:37;12.70;99.90
52943;DHT22;38809;53.300;6.614;2023-03-23T17:10:04;12.80;99.90
52943;DHT22;38809;53.300;6.614;2023-03-23T17:12:30;12.70;99.90
52943;DHT22;38809;53.300;6.614;2023-03-23T17:14:56;12.70;99.90
52943;DHT22;38809;53.300;6.614;2023-03-23T17:17:22;12.70;99.90
52943;DHT22;38809;53.300;6.614;2023-03-23T17:19:49;12.60;99.90
52943;DHT22;38809;53.300;6.614;2023-03-23T17:22:16;12.60;99.90
52943;DHT22;38809;53.300;6.614;2023-03-23T17:24:42;12.60;99.90
52943;DHT22;38809;53.300;6.614;2023-03-23T17:27:08;12.50;99.90
52943;DHT22;38809;53.300;6.614;2023-03-23T17:29:34;12.50;99.90
52943;DHT22;38809;53.300;6.614;2023-03-23T17:32:00;12.50;99.90
52943;DHT22;38809;53.300;6.614;2023-03-23T17:34:26;12.50;99.90
52943;DHT22;38809;53.300;6.614;2023-03-23T17:36:51;12.40;99.90
52943;DHT22;38809;53.300;6.614;2023-03-23T17:39:17;12.40;99.90
52943;DHT22;38809;53.300;6.614;2023-03-23T17:41:42;12.40;99.90
52943;DHT22;38809;53.300;6.614;2023-03-23T17:44:08;12.40;99.90
52943;DHT22;38809;53.300;6.614;2023-03-23T17:46:34;12.30;99.90